Time;durP1;ratioP1;P1;durP2;ratioP2;P2;SDS_P1;SDS_P2;PMS_P1;PMS_P2;Temp;Humidity;BMP_temperature;BMP_pressure;BME280_temperature;BME280_humidity;BME280_pressure;Samples;Min_cycle;Max_cycle;Signal;HPM_P1;HPM_P2
2021/11/13 00:00:30;;;;;;;9.68;2.55;;;12.20;95.30;;;;;;5021634;28;20057;-60
2021/11/13 00:02:57;;;;;;;11.27;1.80;;;12.20;95.30;;;;;;5019318;28;20050;-59
2021/11/13 00:05:24;;;;;;;7.57;1.75;;;12.30;95.20;;;;;;5027213;28;20049;-60
2021/11/13 00:07:51;;;;;;;4.05;1.27;;;12.30;95.30;;;;;;5007208;28;20054;-60
2021/11/13 00:10:20;;;;;;;6.53;1.42;;;12.20;95.10;;;;;;5023681;28;20057;-59
2021/11/13 00:12:47;;;;;;;10.30;1.92;;;12.30;95.10;;;;;;5027751;28;20053;-62
2021/11/13 00:15:19;;;;;;;6.50;1.65;;;12.30;95.20;;;;;;5028313;28;20053;-59
2021/11/13 00:17:46;;;;;;;8.45;1.60;;;12.20;95.00;;;;;;5027272;28;20107;-58
2021/11/13 00:20:12;;;;;;;17.15;3.45;;;12.20;95.00;;;;;;5028057;28;20054;-59
2021/11/13 00:22:39;;;;;;;8.70;2.67;;;12.20;95.00;;;;;;5027949;28;20049;-60
2021/11/13 00:25:06;;;;;;;10.65;1.80;;;12.20;95.00;;;;;;5027348;28;20131;-59
2021/11/13 00:27:33;;;;;;;8.30;1.88;;;12.20;94.80;;;;;;5026518;28;20171;-59
2021/11/13 00:30:00;;;;;;;10.25;2.08;;;12.20;94.90;;;;;;5027374;28;20053;-59
2021/11/13 00:32:27;;;;;;;3.95;1.35;;;12.10;94.80;;;;;;5027544;28;20562;-60
2021/11/13 00:34:56;;;;;;;8.45;2.83;;;12.00;94.90;;;;;;5026310;28;20610;-60
2021/11/13 00:37:24;;;;;;;14.00;2.28;;;12.00;94.90;;;;;;5027016;28;20075;-59
2021/11/13 00:39:51;;;;;;;12.52;1.98;;;12.00;95.00;;;;;;5026461;28;20045;-58
2021/11/13 00:42:18;;;;;;;4.50;1.83;;;11.90;94.90;;;;;;5028328;28;20084;-59
2021/11/13 00:44:45;;;;;;;7.28;1.70;;;11.90;94.90;;;;;;5027717;28;20045;-59
2021/11/13 00:47:11;;;;;;;9.53;3.97;;;11.80;95.00;;;;;;4680655;28;10000629;-62
2021/11/13 00:49:38;;;;;;;4.72;1.38;;;11.80;95.00;;;;;;5028714;28;20046;-59
2021/11/13 00:52:05;;;;;;;8.45;1.75;;;11.80;95.00;;;;;;5030130;28;20053;-59
2021/11/13 00:54:33;;;;;;;8.05;1.55;;;11.70;95.00;;;;;;5029499;28;20099;-59
2021/11/13 00:57:01;;;;;;;9.55;1.70;;;11.70;95.00;;;;;;5028087;28;20099;-59
2021/11/13 00:59:28;;;;;;;8.57;1.63;;;11.70;95.00;;;;;;5030022;28;20045;-58
2021/11/13 01:01:54;;;;;;;7.35;1.83;;;11.60;95.10;;;;;;5029042;28;20053;-60
2021/11/13 01:04:21;;;;;;;8.90;2.00;;;11.60;95.10;;;;;;5029801;28;20085;-59
2021/11/13 01:06:48;;;;;;;4.90;1.55;;;11.60;95.20;;;;;;5029875;28;20069;-60
2021/11/13 01:09:15;;;;;;;8.68;1.45;;;11.60;95.20;;;;;;5029818;28;20049;-58
2021/11/13 01:11:41;;;;;;;7.95;1.48;;;11.70;95.20;;;;;;5029552;28;20042;-60
2021/11/13 01:14:08;;;;;;;9.73;1.98;;;11.50;95.10;;;;;;5029936;28;20045;-60
2021/11/13 01:16:35;;;;;;;8.32;1.85;;;11.60;95.10;;;;;;5029639;28;20049;-60
2021/11/13 01:19:02;;;;;;;5.70;1.27;;;11.50;95.10;;;;;;5030280;28;20458;-59
2021/11/13 01:21:29;;;;;;;4.10;1.33;;;11.50;95.20;;;;;;5029845;28;20133;-59
2021/11/13 01:23:56;;;;;;;6.90;1.60;;;11.50;95.30;;;;;;5030144;28;20049;-59
2021/11/13 01:26:22;;;;;;;4.65;1.92;;;11.40;95.30;;;;;;5029048;28;20107;-59
2021/11/13 01:28:49;;;;;;;9.20;2.30;;;11.50;95.40;;;;;;5029658;28;20046;-61
2021/11/13 01:31:17;;;;;;;7.35;3.15;;;11.50;95.30;;;;;;5029409;28;20053;-58
2021/11/13 01:33:44;;;;;;;6.75;2.60;;;11.50;95.30;;;;;;5029043;28;20452;-58
2021/11/13 01:36:11;;;;;;;5.20;1.75;;;11.50;95.20;;;;;;5029016;28;20049;-59
2021/11/13 01:38:39;;;;;;;11.40;2.10;;;11.50;95.20;;;;;;5029323;28;20463;-59
2021/11/13 01:41:05;;;;;;;5.13;1.65;;;11.50;95.10;;;;;;5029105;28;20104;-59
2021/11/13 01:43:33;;;;;;;11.07;1.85;;;11.50;95.10;;;;;;5028236;28;20045;-59
2021/11/13 01:46:04;;;;;;;8.98;1.95;;;11.40;95.10;;;;;;5027544;28;20412;-59
2021/11/13 01:48:31;;;;;;;12.40;1.50;;;11.40;95.20;;;;;;5027399;28;20077;-63
2021/11/13 01:50:58;;;;;;;6.25;1.58;;;11.40;95.20;;;;;;5026922;28;20057;-58
2021/11/13 01:53:26;;;;;;;3.75;1.45;;;11.30;95.20;;;;;;5025776;28;20053;-60
2021/11/13 01:55:56;;;;;;;5.93;1.92;;;11.20;95.30;;;;;;5025863;28;20103;-59
2021/11/13 01:58:23;;;;;;;9.32;2.22;;;11.20;95.30;;;;;;5027126;28;20100;-59
2021/11/13 02:00:52;;;;;;;11.50;1.55;;;11.20;95.30;;;;;;5027422;28;20470;-59
2021/11/13 02:03:20;;;;;;;5.97;1.33;;;11.20;95.30;;;;;;5026470;28;20464;-59
2021/11/13 02:05:47;;;;;;;9.85;1.50;;;11.30;95.40;;;;;;5028746;28;20508;-58
2021/11/13 02:08:15;;;;;;;8.48;2.33;;;11.30;95.40;;;;;;5028585;28;20123;-59
2021/11/13 02:10:42;;;;;;;7.63;1.48;;;11.30;95.40;;;;;;5027492;28;20053;-59
2021/11/13 02:13:09;;;;;;;6.07;1.55;;;11.30;95.40;;;;;;5028341;28;20037;-58
2021/11/13 02:15:35;;;;;;;9.10;2.85;;;11.40;95.40;;;;;;5028277;28;20501;-60
2021/11/13 02:18:03;;;;;;;4.80;1.58;;;11.40;95.40;;;;;;5028317;28;20107;-59
2021/11/13 02:20:32;;;;;;;4.93;1.63;;;11.40;95.50;;;;;;5027985;28;20045;-60
2021/11/13 02:23:00;;;;;;;9.00;2.03;;;11.40;95.30;;;;;;5028207;28;20045;-61
2021/11/13 02:25:28;;;;;;;6.75;1.80;;;11.40;95.30;;;;;;5027992;28;20073;-59
2021/11/13 02:27:55;;;;;;;6.20;1.33;;;11.40;95.30;;;;;;5027989;28;20107;-59
2021/11/13 02:30:22;;;;;;;9.02;2.15;;;11.40;95.30;;;;;;5027089;28;20476;-60
2021/11/13 02:32:49;;;;;;;10.68;2.15;;;11.40;95.20;;;;;;5027667;28;20486;-58
2021/11/13 02:35:16;;;;;;;9.60;2.08;;;11.40;95.20;;;;;;5027932;28;20566;-59
2021/11/13 02:37:44;;;;;;;4.97;1.35;;;11.40;95.10;;;;;;5027890;28;20045;-59
2021/11/13 02:40:11;;;;;;;8.85;2.72;;;11.40;95.20;;;;;;5028252;28;20076;-60
2021/11/13 02:42:38;;;;;;;10.60;2.35;;;11.40;95.30;;;;;;5027572;28;20049;-59
2021/11/13 02:45:07;;;;;;;4.03;1.40;;;11.40;95.20;;;;;;5027835;28;20500;-58
2021/11/13 02:47:43;;;;;;;8.70;2.38;;;11.30;95.10;;;;;;4846529;28;10001190;-59
2021/11/13 02:50:10;;;;;;;5.72;1.38;;;11.30;95.00;;;;;;5021663;28;20274;-58
2021/11/13 02:52:45;;;;;;;10.90;2.35;;;11.30;95.10;;;;;;5026141;28;20141;-59
2021/11/13 02:55:14;;;;;;;7.15;1.67;;;11.30;95.00;;;;;;5026330;28;20049;-59
2021/11/13 02:57:41;;;;;;;5.82;1.27;;;11.30;95.00;;;;;;5026738;28;20057;-58
2021/11/13 03:00:09;;;;;;;5.78;1.48;;;11.30;94.90;;;;;;5027654;28;20049;-57
2021/11/13 03:02:37;;;;;;;3.72;1.50;;;11.30;95.00;;;;;;5026366;28;20084;-59
2021/11/13 03:05:05;;;;;;;6.18;1.45;;;11.30;94.90;;;;;;5027450;28;20480;-59
2021/11/13 03:07:32;;;;;;;7.78;2.35;;;11.20;94.80;;;;;;5026493;28;20083;-60
2021/11/13 03:09:59;;;;;;;7.72;1.88;;;11.20;94.80;;;;;;5027341;28;20056;-60
2021/11/13 03:12:25;;;;;;;4.10;1.23;;;11.20;94.70;;;;;;5027736;28;20085;-58
2021/11/13 03:14:52;;;;;;;4.05;1.30;;;11.20;94.70;;;;;;5027240;28;20123;-60
2021/11/13 03:17:19;;;;;;;11.25;2.28;;;11.10;94.70;;;;;;5027597;28;20049;-57
2021/11/13 03:19:46;;;;;;;5.03;1.70;;;11.10;94.60;;;;;;5026993;28;20083;-59
2021/11/13 03:22:12;;;;;;;1.83;1.10;;;11.20;94.50;;;;;;5027476;28;20116;-58
2021/11/13 03:24:40;;;;;;;3.47;1.42;;;11.20;94.60;;;;;;5026156;28;20084;-59
2021/11/13 03:27:07;;;;;;;6.78;2.33;;;11.10;94.40;;;;;;5010187;28;20084;-58
2021/11/13 03:29:34;;;;;;;4.82;1.52;;;11.00;94.30;;;;;;5025782;28;20135;-59
2021/11/13 03:32:01;;;;;;;2.35;0.88;;;11.10;94.50;;;;;;5005402;28;20077;-59
2021/11/13 03:34:28;;;;;;;9.23;1.83;;;11.10;94.30;;;;;;5011177;28;20062;-59
2021/11/13 03:36:54;;;;;;;8.50;1.48;;;11.10;94.40;;;;;;5021545;28;20084;-59
2021/11/13 03:39:21;;;;;;;5.13;1.73;;;11.10;94.20;;;;;;5027413;28;20049;-59
2021/11/13 03:41:49;;;;;;;2.38;1.00;;;11.20;94.40;;;;;;5026808;28;20496;-57
2021/11/13 03:44:15;;;;;;;5.50;1.20;;;11.20;94.30;;;;;;5026134;28;20041;-59
2021/11/13 03:46:42;;;;;;;2.70;1.05;;;11.20;94.30;;;;;;5026713;28;20051;-58
2021/11/13 03:49:09;;;;;;;5.40;1.13;;;11.20;94.20;;;;;;5027419;28;20281;-58
2021/11/13 03:51:37;;;;;;;5.53;1.65;;;11.20;94.40;;;;;;5026605;28;20046;-58
2021/11/13 03:54:04;;;;;;;4.32;1.20;;;11.20;94.20;;;;;;5027356;28;20041;-59
2021/11/13 03:56:31;;;;;;;6.35;1.58;;;11.20;94.30;;;;;;5026314;28;20275;-61
2021/11/13 03:58:58;;;;;;;8.57;1.10;;;11.30;94.10;;;;;;5026944;28;20084;-59
2021/11/13 04:01:24;;;;;;;2.92;1.15;;;11.20;94.10;;;;;;5025264;28;20077;-60
2021/11/13 04:03:51;;;;;;;8.77;1.63;;;11.20;94.20;;;;;;5024339;28;20085;-59
2021/11/13 04:06:18;;;;;;;3.17;1.10;;;11.20;94.10;;;;;;5026484;28;20046;-61
2021/11/13 04:08:45;;;;;;;5.30;1.10;;;11.30;94.10;;;;;;5021132;28;20049;-60
2021/11/13 04:11:11;;;;;;;5.57;1.10;;;11.30;94.20;;;;;;5014247;28;20123;-60
2021/11/13 04:13:38;;;;;;;3.50;1.35;;;11.30;94.20;;;;;;5026841;28;20119;-57
2021/11/13 04:16:05;;;;;;;3.88;1.30;;;11.30;93.90;;;;;;5026747;28;20398;-57
2021/11/13 04:18:32;;;;;;;5.55;1.13;;;11.30;94.00;;;;;;5014711;28;20045;-58
2021/11/13 04:20:59;;;;;;;3.83;1.00;;;11.30;93.90;;;;;;5026753;28;20489;-58
2021/11/13 04:23:26;;;;;;;2.97;1.00;;;11.30;93.80;;;;;;5027149;28;20459;-58
2021/11/13 04:25:53;;;;;;;7.75;1.15;;;11.30;94.10;;;;;;5025886;28;20095;-63
2021/11/13 04:28:19;;;;;;;6.40;0.80;;;11.30;94.10;;;;;;5025553;28;20077;-60
2021/11/13 04:30:46;;;;;;;5.38;1.25;;;11.30;93.70;;;;;;5025638;28;20053;-57
2021/11/13 04:33:13;;;;;;;7.38;1.58;;;11.40;93.90;;;;;;5025292;28;20332;-59
2021/11/13 04:35:48;;;;;;;4.57;0.90;;;11.40;93.80;;;;;;5026930;28;20092;-58
2021/11/13 04:38:15;;;;;;;4.95;0.80;;;11.30;93.90;;;;;;5026703;28;20049;-59
2021/11/13 04:40:42;;;;;;;6.50;1.77;;;11.40;93.80;;;;;;5026840;28;20049;-59
2021/11/13 04:43:09;;;;;;;4.55;0.88;;;11.40;93.60;;;;;;5028314;28;20516;-58
2021/11/13 04:45:36;;;;;;;6.38;0.82;;;11.40;93.70;;;;;;5030111;28;20107;-59
2021/11/13 04:48:03;;;;;;;8.65;1.38;;;11.40;93.70;;;;;;5029948;28;20045;-59
2021/11/13 04:50:29;;;;;;;2.13;0.70;;;11.40;93.40;;;;;;5029093;28;20103;-58
2021/11/13 04:52:56;;;;;;;4.47;1.05;;;11.40;93.30;;;;;;5029869;28;20042;-58
2021/11/13 04:55:23;;;;;;;2.67;0.80;;;11.40;93.60;;;;;;5028123;28;20046;-59
2021/11/13 04:57:50;;;;;;;3.35;0.98;;;11.40;93.30;;;;;;5029584;28;20305;-59
2021/11/13 05:00:19;;;;;;;5.63;1.65;;;11.50;93.10;;;;;;5028775;28;20042;-58
2021/11/13 05:02:46;;;;;;;3.55;0.90;;;11.50;92.90;;;;;;5029757;28;20488;-59
2021/11/13 05:05:12;;;;;;;6.10;0.93;;;11.50;92.90;;;;;;5030012;28;20045;-59
2021/11/13 05:07:39;;;;;;;4.47;0.50;;;11.50;92.80;;;;;;5029396;28;20053;-59
2021/11/13 05:10:06;;;;;;;3.17;0.95;;;11.50;93.20;;;;;;5029977;28;20041;-58
2021/11/13 05:12:34;;;;;;;2.63;0.90;;;11.60;92.90;;;;;;5029368;28;20513;-59
2021/11/13 05:15:01;;;;;;;2.75;1.27;;;11.60;92.90;;;;;;5030017;28;20042;-59
2021/11/13 05:17:27;;;;;;;3.45;0.93;;;11.50;92.30;;;;;;5029977;28;20049;-59
2021/11/13 05:19:54;;;;;;;13.88;3.38;;;11.60;93.00;;;;;;5029346;28;20077;-58
2021/11/13 05:22:21;;;;;;;2.55;1.00;;;11.60;92.80;;;;;;5029945;28;20167;-58
2021/11/13 05:24:48;;;;;;;4.38;0.77;;;11.60;92.30;;;;;;5028819;28;20073;-59
2021/11/13 05:27:14;;;;;;;10.07;2.03;;;11.60;92.30;;;;;;5029799;28;20053;-58
2021/11/13 05:29:41;;;;;;;7.07;0.82;;;11.60;92.10;;;;;;5029046;28;20045;-58
2021/11/13 05:32:08;;;;;;;5.63;0.88;;;11.60;92.30;;;;;;5029660;28;20508;-58
2021/11/13 05:34:35;;;;;;;4.05;0.93;;;11.60;92.70;;;;;;5028882;28;20127;-58
2021/11/13 05:37:02;;;;;;;3.92;0.80;;;11.60;92.70;;;;;;5029461;28;20053;-58
2021/11/13 05:39:29;;;;;;;5.43;0.90;;;11.60;92.20;;;;;;5029395;28;20095;-58
2021/11/13 05:41:55;;;;;;;3.00;0.63;;;11.70;92.30;;;;;;5028938;28;20318;-57
2021/11/13 05:44:22;;;;;;;6.03;1.15;;;11.60;92.50;;;;;;5029175;28;20054;-57
2021/11/13 05:46:54;;;;;;;4.43;0.85;;;11.60;91.30;;;;;;5029136;28;20045;-58
2021/11/13 05:49:21;;;;;;;5.70;0.80;;;11.70;91.70;;;;;;5028832;28;20107;-58
2021/11/13 05:51:49;;;;;;;3.80;0.68;;;11.70;91.90;;;;;;5028921;28;20107;-58
2021/11/13 05:54:15;;;;;;;4.40;0.98;;;11.70;91.80;;;;;;5027146;28;20053;-57
2021/11/13 05:56:42;;;;;;;3.25;0.90;;;11.60;92.00;;;;;;5027418;28;20488;-58
2021/11/13 05:59:09;;;;;;;3.78;0.80;;;11.70;92.20;;;;;;5011269;28;20045;-58
2021/11/13 06:01:36;;;;;;;3.25;0.70;;;11.70;91.80;;;;;;5028611;28;20080;-60
2021/11/13 06:04:05;;;;;;;5.05;1.00;;;11.60;91.60;;;;;;5028984;28;20554;-58
2021/11/13 06:06:52;;;;;;;3.97;0.75;;;11.70;91.90;;;;;;5029456;28;20044;-58
2021/11/13 06:09:18;;;;;;;3.50;0.80;;;11.60;91.90;;;;;;5028828;28;20093;-59
2021/11/13 06:11:45;;;;;;;4.65;0.88;;;11.70;92.10;;;;;;5028448;28;20084;-60
2021/11/13 06:14:12;;;;;;;4.10;0.80;;;11.70;91.70;;;;;;5029198;28;20107;-59
2021/11/13 06:16:39;;;;;;;1.83;0.63;;;11.70;91.90;;;;;;5028344;28;20107;-58
2021/11/13 06:19:05;;;;;;;5.07;0.77;;;11.70;91.80;;;;;;5028647;28;20469;-58
2021/11/13 06:21:32;;;;;;;10.15;0.90;;;11.60;91.90;;;;;;5027961;28;20501;-58
2021/11/13 06:23:59;;;;;;;3.45;0.60;;;11.60;92.00;;;;;;5028450;28;20099;-59
2021/11/13 06:26:25;;;;;;;2.80;0.73;;;11.60;91.90;;;;;;5024056;28;20041;-60
2021/11/13 06:28:52;;;;;;;3.85;1.20;;;11.70;92.20;;;;;;5025692;28;20053;-59
2021/11/13 06:31:19;;;;;;;4.90;1.30;;;11.60;92.10;;;;;;5028192;28;20057;-59
2021/11/13 06:33:46;;;;;;;2.30;0.80;;;11.60;92.50;;;;;;5028053;28;20325;-59
2021/11/13 06:36:13;;;;;;;2.60;0.60;;;11.50;92.20;;;;;;5025853;28;20042;-60
2021/11/13 06:38:39;;;;;;;6.05;0.90;;;11.50;92.50;;;;;;5027677;28;20107;-59
2021/11/13 06:41:06;;;;;;;5.07;0.90;;;11.50;92.70;;;;;;5026294;28;20050;-58
2021/11/13 06:43:37;;;;;;;3.17;0.68;;;11.50;92.60;;;;;;5027960;28;20041;-62
2021/11/13 06:46:04;;;;;;;2.38;0.68;;;11.50;92.70;;;;;;5027591;28;20041;-59
2021/11/13 06:48:31;;;;;;;2.67;0.73;;;11.50;92.50;;;;;;5016610;28;20073;-58
2021/11/13 06:50:58;;;;;;;3.85;1.00;;;11.40;92.70;;;;;;5027453;28;20061;-58
2021/11/13 06:53:25;;;;;;;6.75;1.38;;;11.50;92.80;;;;;;5027599;28;20697;-61
2021/11/13 06:55:51;;;;;;;3.22;0.90;;;11.50;92.60;;;;;;5026557;28;20460;-58
2021/11/13 06:58:18;;;;;;;7.15;1.25;;;11.40;92.50;;;;;;5027549;28;20049;-58
2021/11/13 07:00:45;;;;;;;2.25;0.60;;;11.50;92.70;;;;;;5027562;28;20103;-58
2021/11/13 07:03:12;;;;;;;3.05;0.65;;;11.40;92.70;;;;;;5026153;28;20612;-57
2021/11/13 07:05:39;;;;;;;2.63;1.00;;;11.40;92.40;;;;;;5026823;28;20053;-58
2021/11/13 07:08:06;;;;;;;4.68;0.80;;;11.40;92.50;;;;;;5027311;28;20565;-58
2021/11/13 07:10:33;;;;;;;5.63;1.15;;;11.40;92.60;;;;;;5026366;28;20111;-57
2021/11/13 07:13:00;;;;;;;3.85;0.80;;;11.50;92.80;;;;;;5027438;28;20100;-58
2021/11/13 07:15:31;;;;;;;3.58;0.90;;;11.50;92.80;;;;;;5026221;28;20087;-58
2021/11/13 07:18:02;;;;;;;5.45;1.13;;;11.50;92.80;;;;;;5027014;28;20041;-59
2021/11/13 07:20:30;;;;;;;3.00;1.08;;;11.50;92.70;;;;;;5026253;28;20115;-57
2021/11/13 07:22:57;;;;;;;2.30;0.82;;;11.50;92.70;;;;;;5026865;28;20111;-59
2021/11/13 07:25:26;;;;;;;10.07;1.15;;;11.50;92.60;;;;;;5026974;28;20045;-58
2021/11/13 07:27:53;;;;;;;4.97;1.27;;;11.50;92.60;;;;;;5026992;28;20041;-57
2021/11/13 07:30:20;;;;;;;3.60;1.13;;;11.50;92.60;;;;;;5027598;28;20156;-57
2021/11/13 07:32:48;;;;;;;5.88;1.42;;;11.50;92.70;;;;;;5027067;28;20115;-57
2021/11/13 07:35:14;;;;;;;6.18;1.38;;;11.50;92.70;;;;;;5025615;28;20084;-58
2021/11/13 07:37:41;;;;;;;6.78;0.95;;;11.50;92.50;;;;;;5026042;28;20501;-57
2021/11/13 07:40:09;;;;;;;4.88;1.17;;;11.50;92.60;;;;;;5026771;28;20077;-57
2021/11/13 07:42:35;;;;;;;5.32;0.88;;;11.50;92.70;;;;;;5026535;28;20042;-58
2021/11/13 07:45:06;;;;;;;5.80;1.98;;;11.50;92.30;;;;;;5027361;28;20559;-59
2021/11/13 07:47:35;;;;;;;1.38;0.82;;;11.50;92.60;;;;;;5027288;28;20049;-60
2021/11/13 07:50:02;;;;;;;5.75;1.40;;;11.50;92.60;;;;;;5025896;28;20449;-56
2021/11/13 07:52:29;;;;;;;7.00;1.40;;;11.50;92.80;;;;;;5026775;28;20045;-58
2021/11/13 07:54:56;;;;;;;9.43;1.50;;;11.60;92.90;;;;;;5026068;28;20555;-59
2021/11/13 07:57:23;;;;;;;3.70;0.77;;;11.60;92.80;;;;;;5027047;28;20092;-59
2021/11/13 07:59:49;;;;;;;5.05;1.05;;;11.60;92.90;;;;;;5026549;28;20591;-58
2021/11/13 08:02:16;;;;;;;2.72;1.05;;;11.60;92.90;;;;;;5026934;28;20084;-53
2021/11/13 08:04:43;;;;;;;2.30;1.15;;;11.70;92.80;;;;;;5025123;28;20467;-56
2021/11/13 08:07:10;;;;;;;3.78;0.73;;;11.60;92.80;;;;;;5026016;28;20137;-56
2021/11/13 08:09:37;;;;;;;2.40;0.70;;;11.70;93.00;;;;;;5026755;28;20069;-57
2021/11/13 08:12:04;;;;;;;4.88;1.08;;;11.60;92.80;;;;;;5019641;28;20101;-54
2021/11/13 08:14:31;;;;;;;3.83;1.05;;;11.60;92.50;;;;;;5023864;28;20038;-57
2021/11/13 08:16:57;;;;;;;6.03;1.15;;;11.70;92.80;;;;;;5026782;28;20086;-56
2021/11/13 08:19:24;;;;;;;4.05;1.45;;;11.70;92.90;;;;;;5029078;28;20049;-56
2021/11/13 08:21:51;;;;;;;3.20;1.20;;;11.70;92.80;;;;;;5029848;28;20042;-55
2021/11/13 08:24:19;;;;;;;4.40;1.02;;;11.70;92.70;;;;;;5029492;28;20045;-55
2021/11/13 08:26:47;;;;;;;6.07;1.08;;;11.70;92.70;;;;;;5029548;28;20579;-57
2021/11/13 08:29:16;;;;;;;12.48;1.73;;;11.70;92.90;;;;;;5029894;28;20049;-57
2021/11/13 08:31:43;;;;;;;4.05;1.60;;;11.70;92.80;;;;;;5022477;28;20085;-55
2021/11/13 08:34:11;;;;;;;8.40;1.25;;;11.70;92.60;;;;;;5016306;28;20152;-56
2021/11/13 08:36:41;;;;;;;8.15;1.63;;;11.80;92.80;;;;;;5026251;28;20045;-55
2021/11/13 08:39:08;;;;;;;7.93;1.20;;;11.80;92.70;;;;;;5024013;28;20053;-55
2021/11/13 08:41:35;;;;;;;3.88;0.90;;;11.80;92.80;;;;;;5024227;28;20056;-55
2021/11/13 08:44:02;;;;;;;8.93;1.30;;;11.80;92.60;;;;;;5027638;28;20106;-55
2021/11/13 08:46:30;;;;;;;4.45;1.17;;;11.90;92.90;;;;;;5025948;28;20091;-54
2021/11/13 08:48:57;;;;;;;7.97;1.98;;;11.90;92.40;;;;;;5027457;28;20523;-54
2021/11/13 08:51:24;;;;;;;4.75;1.13;;;11.90;92.60;;;;;;5026990;28;20123;-55
2021/11/13 08:53:54;;;;;;;6.82;1.08;;;11.90;92.50;;;;;;5028195;28;20154;-56
2021/11/13 08:56:24;;;;;;;4.55;1.98;;;12.00;92.80;;;;;;5022608;28;20103;-55
2021/11/13 08:58:51;;;;;;;2.58;1.10;;;12.00;92.40;;;;;;5026117;28;20092;-52
2021/11/13 09:01:18;;;;;;;4.25;1.02;;;11.90;92.50;;;;;;5025862;28;20116;-54
2021/11/13 09:03:45;;;;;;;7.57;2.13;;;12.00;92.70;;;;;;5026087;28;20049;-52
2021/11/13 09:06:17;;;;;;;6.47;1.55;;;12.00;92.70;;;;;;5015965;28;20045;-56
2021/11/13 09:08:45;;;;;;;2.60;1.30;;;12.00;92.20;;;;;;5027302;28;20085;-54
2021/11/13 09:11:14;;;;;;;7.80;1.23;;;12.10;92.70;;;;;;5028843;28;20045;-53
2021/11/13 09:13:41;;;;;;;8.57;1.70;;;12.10;92.30;;;;;;5029814;28;20096;-54
2021/11/13 09:16:08;;;;;;;9.68;1.50;;;12.10;92.70;;;;;;5020799;28;20045;-58
2021/11/13 09:18:35;;;;;;;4.43;1.27;;;12.10;92.40;;;;;;5029047;28;20103;-54
2021/11/13 09:21:02;;;;;;;6.30;1.80;;;12.10;92.60;;;;;;5017665;28;20277;-56
2021/11/13 09:23:33;;;;;;;4.22;1.23;;;12.20;92.70;;;;;;5029540;28;20051;-56
2021/11/13 09:26:01;;;;;;;5.88;2.00;;;12.20;92.80;;;;;;5027962;28;20069;-56
2021/11/13 09:28:29;;;;;;;4.63;1.55;;;12.30;92.30;;;;;;5028097;28;20503;-57
2021/11/13 09:30:58;;;;;;;4.88;1.90;;;12.30;92.50;;;;;;5011342;28;20084;-57
2021/11/13 09:33:27;;;;;;;5.93;1.77;;;12.30;92.70;;;;;;5028351;28;20107;-57
2021/11/13 09:35:54;;;;;;;4.38;1.40;;;12.40;92.80;;;;;;5025345;28;20045;-57
2021/11/13 09:38:25;;;;;;;1.85;1.10;;;12.40;92.60;;;;;;5026908;28;20057;-56
2021/11/13 09:40:57;;;;;;;4.85;1.30;;;12.20;92.10;;;;;;5028034;28;20156;-55
2021/11/13 09:43:25;;;;;;;7.28;1.48;;;12.20;92.20;;;;;;5027309;28;20085;-55
2021/11/13 09:45:52;;;;;;;8.77;1.90;;;12.30;92.20;;;;;;5024730;28;20049;-55
2021/11/13 09:48:19;;;;;;;11.68;1.52;;;12.30;92.60;;;;;;5022089;28;20088;-55
2021/11/13 09:50:50;;;;;;;9.15;2.40;;;12.30;92.40;;;;;;5028008;28;20107;-58
2021/11/13 09:53:21;;;;;;;13.25;1.58;;;12.30;92.30;;;;;;5027664;28;20099;-56
2021/11/13 09:55:48;;;;;;;3.97;1.10;;;12.30;92.40;;;;;;5028355;28;20081;-56
2021/11/13 09:58:15;;;;;;;4.18;1.30;;;12.40;92.50;;;;;;5028263;28;20501;-56
2021/11/13 10:00:42;;;;;;;8.02;1.77;;;12.40;92.40;;;;;;4663809;28;9999960;-56
2021/11/13 10:03:10;;;;;;;4.65;1.20;;;12.40;92.50;;;;;;5023126;28;20053;-57
2021/11/13 10:05:37;;;;;;;9.65;1.85;;;12.40;92.20;;;;;;5028605;28;20140;-55
2021/11/13 10:08:04;;;;;;;21.48;4.43;;;12.50;92.50;;;;;;5028291;28;20460;-56
2021/11/13 10:10:38;;;;;;;4.47;1.60;;;12.50;92.60;;;;;;5028378;28;20524;-56
2021/11/13 10:13:23;;;;;;;6.47;1.75;;;12.50;92.50;;;;;;5026406;28;20088;-55
2021/11/13 10:15:51;;;;;;;10.15;1.83;;;12.60;92.40;;;;;;5026981;28;20072;-55
2021/11/13 10:18:23;;;;;;;4.60;1.20;;;12.60;92.50;;;;;;5028039;28;20058;-55
2021/11/13 10:20:52;;;;;;;4.75;1.55;;;12.70;91.80;;;;;;5028084;28;20053;-54
2021/11/13 10:23:40;;;;;;;8.50;1.98;;;12.70;91.90;;;;;;5028215;28;20083;-55
2021/11/13 10:26:10;;;;;;;8.35;1.92;;;12.70;91.40;;;;;;5020288;28;20041;-56
2021/11/13 10:29:00;;;;;;;8.82;1.95;;;12.70;92.20;;;;;;5028118;28;20081;-55
2021/11/13 10:31:35;;;;;;;6.80;1.70;;;12.70;91.30;;;;;;5027181;28;20564;-56
2021/11/13 10:34:04;;;;;;;9.93;1.60;;;12.80;91.80;;;;;;5027959;28;20571;-55
2021/11/13 10:36:39;;;;;;;5.97;1.15;;;12.70;91.10;;;;;;5028444;28;20060;-54
2021/11/13 10:39:12;;;;;;;4.95;1.70;;;12.70;90.80;;;;;;5026100;28;20140;-57
2021/11/13 10:41:51;;;;;;;7.50;1.52;;;12.80;91.60;;;;;;5026354;28;20056;-56
2021/11/13 10:44:25;;;;;;;7.57;1.30;;;12.80;91.10;;;;;;5026745;28;20132;-56
2021/11/13 10:46:52;;;;;;;;;;;12.90;90.90;;;;;;5027397;28;20124;-55
2021/11/13 10:49:19;;;;;;;3.95;1.67;;;12.80;90.70;;;;;;5026969;28;19925;-56
2021/11/13 10:51:52;;;;;;;7.55;1.70;;;12.80;91.40;;;;;;5025598;28;20089;-64
2021/11/13 10:54:19;;;;;;;7.20;3.28;;;12.80;91.50;;;;;;5027674;28;20481;-56
2021/11/13 10:56:54;;;;;;;7.75;1.77;;;12.90;91.30;;;;;;5027020;28;20084;-55
2021/11/13 10:59:32;;;;;;;6.68;1.27;;;12.90;91.20;;;;;;5026700;28;20056;-53
2021/11/13 11:02:03;;;;;;;7.28;1.40;;;12.90;90.60;;;;;;5023053;28;20092;-55
2021/11/13 11:04:32;;;;;;;6.97;1.73;;;12.90;91.20;;;;;;5026883;28;20041;-56
2021/11/13 11:07:24;;;;;;;9.13;1.63;;;12.90;91.00;;;;;;5026718;28;20497;-52
2021/11/13 11:10:03;;;;;;;3.40;1.55;;;12.90;91.00;;;;;;5026437;28;20488;-55
2021/11/13 11:12:31;;;;;;;3.53;1.50;;;12.90;90.90;;;;;;5012469;28;20812;-54
2021/11/13 11:15:00;;;;;;;4.95;1.38;;;13.00;91.00;;;;;;5024914;28;20049;-55
2021/11/13 11:17:29;;;;;;;4.28;1.23;;;12.90;90.90;;;;;;5026013;28;20149;-57
2021/11/13 11:20:11;;;;;;;5.03;1.30;;;12.90;90.40;;;;;;5025764;28;20089;-54
2021/11/13 11:22:38;;;;;;;5.38;1.63;;;12.90;90.00;;;;;;5026328;28;20081;-53
2021/11/13 11:25:07;;;;;;;11.07;2.00;;;12.90;90.80;;;;;;5026154;28;20057;-55
2021/11/13 11:27:35;;;;;;;7.28;1.33;;;12.90;90.80;;;;;;5024755;28;20095;-54
2021/11/13 11:30:12;;;;;;;4.78;1.65;;;12.90;90.70;;;;;;5025486;28;20089;-52
2021/11/13 11:32:42;;;;;;;3.45;1.17;;;12.90;90.50;;;;;;5021086;28;20539;-54
2021/11/13 11:35:16;;;;;;;7.45;1.63;;;12.90;90.10;;;;;;5008922;28;20061;-54
2021/11/13 11:37:45;;;;;;;4.15;1.63;;;13.00;90.60;;;;;;5022489;28;20085;-55
2021/11/13 11:40:19;;;;;;;6.38;1.25;;;13.00;90.30;;;;;;5026677;28;20088;-54
2021/11/13 11:42:47;;;;;;;;;;;13.00;89.40;;;;;;5025565;28;20492;-56
2021/11/13 11:45:17;;;;;;;5.13;1.13;;;12.90;89.20;;;;;;5025651;28;20008;-55
2021/11/13 11:47:44;;;;;;;4.40;1.35;;;12.90;90.30;;;;;;5026130;28;20492;-57
2021/11/13 11:50:12;;;;;;;5.18;1.50;;;12.90;90.10;;;;;;5016238;28;20077;-55
2021/11/13 11:52:43;;;;;;;3.40;1.42;;;12.90;90.70;;;;;;5025468;28;20085;-56
2021/11/13 11:55:11;;;;;;;4.63;1.23;;;12.90;89.60;;;;;;5029956;28;20140;-53
2021/11/13 11:57:40;;;;;;;3.30;1.40;;;12.90;89.10;;;;;;5029224;28;20049;-60
2021/11/13 12:00:11;;;;;;;4.75;1.45;;;12.90;89.00;;;;;;5028007;28;20086;-54
2021/11/13 12:02:46;;;;;;;3.55;1.20;;;12.90;90.50;;;;;;4679322;28;10000512;-54
2021/11/13 12:05:19;;;;;;;8.35;1.55;;;12.90;88.30;;;;;;5028811;28;20085;-54
2021/11/13 12:07:46;;;;;;;2.42;1.30;;;12.90;90.00;;;;;;5028252;28;20063;-55
2021/11/13 12:10:28;;;;;;;7.63;1.70;;;13.00;90.40;;;;;;5029283;28;20114;-53
2021/11/13 12:13:24;;;;;;;3.72;1.23;;;13.00;89.80;;;;;;5028822;28;20148;-54
2021/11/13 12:15:58;;;;;;;6.63;1.40;;;13.00;88.00;;;;;;5010726;28;20053;-54
2021/11/13 12:18:35;;;;;;;8.75;1.17;;;12.90;89.40;;;;;;5026447;28;20576;-54
2021/11/13 12:21:04;;;;;;;4.35;1.55;;;12.90;88.50;;;;;;5029217;28;20119;-53
2021/11/13 12:23:33;;;;;;;3.05;0.88;;;12.90;88.90;;;;;;5030269;28;20500;-55
2021/11/13 12:26:19;;;;;;;4.82;1.70;;;12.90;89.50;;;;;;5030778;28;20046;-51
2021/11/13 12:28:46;;;;;;;4.72;1.60;;;12.90;90.10;;;;;;5030358;28;20081;-54
2021/11/13 12:31:29;;;;;;;6.50;1.65;;;12.90;89.90;;;;;;5029758;28;20455;-53
2021/11/13 12:34:14;;;;;;;8.90;1.40;;;12.90;88.90;;;;;;5028557;28;20053;-52
2021/11/13 12:36:58;;;;;;;3.63;1.60;;;12.90;88.50;;;;;;5009249;28;20058;-54
2021/11/13 12:39:25;;;;;;;;;;;12.90;87.60;;;;;;5029446;28;20057;-56
2021/11/13 12:42:05;;;;;;;6.35;2.72;;;12.90;87.00;;;;;;5029414;28;19928;-53
2021/11/13 12:44:36;;;;;;;3.75;1.73;;;12.90;88.70;;;;;;5009302;28;20141;-53
2021/11/13 12:47:05;;;;;;;4.50;1.52;;;12.90;89.90;;;;;;5029599;28;20045;-55
2021/11/13 12:49:37;;;;;;;6.13;1.63;;;12.80;87.80;;;;;;5029367;28;20584;-53
2021/11/13 12:52:34;;;;;;;8.80;1.20;;;12.80;89.30;;;;;;5030156;28;20080;-51